sensor_id;sensor_type;location;lat;lon;timestamp;P1;durP1;ratioP1;P2;durP2;ratioP2
11151;SDS011;5630;49.342;10.802;2023-04-08T00:00:13;18.00;;;15.90;;
11151;SDS011;5630;49.342;10.802;2023-04-08T00:02:39;17.90;;;14.60;;
11151;SDS011;5630;49.342;10.802;2023-04-08T00:05:05;24.53;;;18.70;;
11151;SDS011;5630;49.342;10.802;2023-04-08T00:07:32;28.90;;;22.33;;
11151;SDS011;5630;49.342;10.802;2023-04-08T00:09:57;16.97;;;14.87;;
11151;SDS011;5630;49.342;10.802;2023-04-08T00:12:23;21.93;;;17.03;;
11151;SDS011;5630;49.342;10.802;2023-04-08T00:14:48;16.43;;;14.67;;
11151;SDS011;5630;49.342;10.802;2023-04-08T00:17:14;15.73;;;14.00;;
11151;SDS011;5630;49.342;10.802;2023-04-08T00:19:40;14.30;;;12.80;;
11151;SDS011;5630;49.342;10.802;2023-04-08T00:22:06;15.30;;;13.30;;
11151;SDS011;5630;49.342;10.802;2023-04-08T00:24:32;15.20;;;13.13;;
11151;SDS011;5630;49.342;10.802;2023-04-08T00:26:58;14.23;;;12.07;;
11151;SDS011;5630;49.342;10.802;2023-04-08T00:29:24;14.63;;;11.87;;
11151;SDS011;5630;49.342;10.802;2023-04-08T00:31:50;14.23;;;11.73;;
11151;SDS011;5630;49.342;10.802;2023-04-08T00:34:16;14.57;;;12.67;;
11151;SDS011;5630;49.342;10.802;2023-04-08T00:36:42;14.03;;;12.20;;
11151;SDS011;5630;49.342;10.802;2023-04-08T00:39:09;13.80;;;11.67;;
11151;SDS011;5630;49.342;10.802;2023-04-08T00:41:35;16.60;;;12.37;;
11151;SDS011;5630;49.342;10.802;2023-04-08T00:44:00;13.97;;;11.73;;
11151;SDS011;5630;49.342;10.802;2023-04-08T00:46:26;14.03;;;11.93;;
11151;SDS011;5630;49.342;10.802;2023-04-08T00:48:53;14.13;;;12.00;;
11151;SDS011;5630;49.342;10.802;2023-04-08T00:51:18;13.93;;;12.03;;
11151;SDS011;5630;49.342;10.802;2023-04-08T00:53:44;15.20;;;12.20;;
11151;SDS011;5630;49.342;10.802;2023-04-08T00:56:10;13.43;;;11.90;;
11151;SDS011;5630;49.342;10.802;2023-04-08T00:58:36;14.53;;;11.80;;
11151;SDS011;5630;49.342;10.802;2023-04-08T01:01:03;15.50;;;12.60;;
11151;SDS011;5630;49.342;10.802;2023-04-08T01:03:49;14.70;;;13.10;;
11151;SDS011;5630;49.342;10.802;2023-04-08T01:06:35;14.33;;;12.37;;
11151;SDS011;5630;49.342;10.802;2023-04-08T01:09:06;19.37;;;13.57;;
11151;SDS011;5630;49.342;10.802;2023-04-08T01:11:33;14.70;;;13.20;;
11151;SDS011;5630;49.342;10.802;2023-04-08T01:14:03;14.23;;;12.73;;
11151;SDS011;5630;49.342;10.802;2023-04-08T01:16:30;14.53;;;12.23;;
11151;SDS011;5630;49.342;10.802;2023-04-08T01:18:56;15.23;;;13.63;;
11151;SDS011;5630;49.342;10.802;2023-04-08T01:21:22;16.13;;;13.47;;
11151;SDS011;5630;49.342;10.802;2023-04-08T01:26:30;15.40;;;13.27;;
11151;SDS011;5630;49.342;10.802;2023-04-08T01:28:58;16.27;;;13.37;;
11151;SDS011;5630;49.342;10.802;2023-04-08T01:31:25;15.97;;;13.63;;
11151;SDS011;5630;49.342;10.802;2023-04-08T01:33:51;16.33;;;14.00;;
11151;SDS011;5630;49.342;10.802;2023-04-08T01:36:19;18.70;;;14.40;;
11151;SDS011;5630;49.342;10.802;2023-04-08T01:38:45;17.67;;;14.70;;
11151;SDS011;5630;49.342;10.802;2023-04-08T01:41:12;17.37;;;14.57;;
11151;SDS011;5630;49.342;10.802;2023-04-08T01:43:41;17.40;;;14.73;;
11151;SDS011;5630;49.342;10.802;2023-04-08T01:46:08;18.57;;;13.73;;
11151;SDS011;5630;49.342;10.802;2023-04-08T01:48:35;15.97;;;13.27;;
11151;SDS011;5630;49.342;10.802;2023-04-08T01:51:02;17.27;;;13.87;;
11151;SDS011;5630;49.342;10.802;2023-04-08T01:53:29;16.60;;;14.70;;
11151;SDS011;5630;49.342;10.802;2023-04-08T01:55:57;15.27;;;13.67;;
11151;SDS011;5630;49.342;10.802;2023-04-08T01:58:27;18.47;;;15.23;;
11151;SDS011;5630;49.342;10.802;2023-04-08T02:01:00;19.43;;;14.53;;
11151;SDS011;5630;49.342;10.802;2023-04-08T02:03:27;18.57;;;14.73;;
11151;SDS011;5630;49.342;10.802;2023-04-08T02:05:55;18.10;;;15.17;;
11151;SDS011;5630;49.342;10.802;2023-04-08T02:08:21;21.53;;;16.67;;
11151;SDS011;5630;49.342;10.802;2023-04-08T02:10:46;18.13;;;15.53;;
11151;SDS011;5630;49.342;10.802;2023-04-08T02:13:12;17.17;;;14.13;;
11151;SDS011;5630;49.342;10.802;2023-04-08T02:15:39;18.67;;;15.93;;
11151;SDS011;5630;49.342;10.802;2023-04-08T02:18:11;17.53;;;15.53;;
11151;SDS011;5630;49.342;10.802;2023-04-08T02:20:45;19.37;;;16.57;;
11151;SDS011;5630;49.342;10.802;2023-04-08T02:23:20;20.23;;;15.87;;
11151;SDS011;5630;49.342;10.802;2023-04-08T02:25:48;19.47;;;16.67;;
11151;SDS011;5630;49.342;10.802;2023-04-08T02:28:14;21.17;;;17.23;;
11151;SDS011;5630;49.342;10.802;2023-04-08T02:30:43;19.67;;;16.37;;
11151;SDS011;5630;49.342;10.802;2023-04-08T02:33:14;19.07;;;16.87;;
11151;SDS011;5630;49.342;10.802;2023-04-08T02:35:42;20.53;;;17.70;;
11151;SDS011;5630;49.342;10.802;2023-04-08T02:38:09;23.10;;;18.53;;
11151;SDS011;5630;49.342;10.802;2023-04-08T02:40:35;21.03;;;18.83;;
11151;SDS011;5630;49.342;10.802;2023-04-08T02:43:01;19.57;;;17.57;;
11151;SDS011;5630;49.342;10.802;2023-04-08T02:45:27;23.37;;;18.57;;
11151;SDS011;5630;49.342;10.802;2023-04-08T02:47:56;21.67;;;19.37;;
11151;SDS011;5630;49.342;10.802;2023-04-08T02:50:23;22.47;;;19.00;;
11151;SDS011;5630;49.342;10.802;2023-04-08T02:52:49;20.97;;;18.77;;
11151;SDS011;5630;49.342;10.802;2023-04-08T02:55:15;20.97;;;18.67;;
11151;SDS011;5630;49.342;10.802;2023-04-08T02:57:41;24.50;;;19.97;;
11151;SDS011;5630;49.342;10.802;2023-04-08T03:00:07;21.80;;;18.20;;
11151;SDS011;5630;49.342;10.802;2023-04-08T03:02:33;21.00;;;18.63;;
11151;SDS011;5630;49.342;10.802;2023-04-08T03:04:59;24.07;;;18.07;;
11151;SDS011;5630;49.342;10.802;2023-04-08T03:07:25;22.33;;;17.63;;
11151;SDS011;5630;49.342;10.802;2023-04-08T03:09:50;25.13;;;18.03;;
11151;SDS011;5630;49.342;10.802;2023-04-08T03:12:16;23.20;;;18.43;;
11151;SDS011;5630;49.342;10.802;2023-04-08T03:14:42;23.10;;;17.73;;
11151;SDS011;5630;49.342;10.802;2023-04-08T03:17:07;21.63;;;17.03;;
11151;SDS011;5630;49.342;10.802;2023-04-08T03:19:33;23.17;;;18.60;;
11151;SDS011;5630;49.342;10.802;2023-04-08T03:21:58;23.03;;;18.63;;
11151;SDS011;5630;49.342;10.802;2023-04-08T03:24:24;21.97;;;19.00;;
11151;SDS011;5630;49.342;10.802;2023-04-08T03:26:50;21.70;;;17.40;;
11151;SDS011;5630;49.342;10.802;2023-04-08T03:29:15;19.90;;;17.77;;
11151;SDS011;5630;49.342;10.802;2023-04-08T03:31:41;21.63;;;19.33;;
11151;SDS011;5630;49.342;10.802;2023-04-08T03:34:06;23.70;;;18.03;;
11151;SDS011;5630;49.342;10.802;2023-04-08T03:36:32;22.20;;;18.17;;
11151;SDS011;5630;49.342;10.802;2023-04-08T03:38:57;21.80;;;18.03;;
11151;SDS011;5630;49.342;10.802;2023-04-08T03:41:23;21.53;;;18.73;;
11151;SDS011;5630;49.342;10.802;2023-04-08T03:43:48;22.13;;;18.37;;
11151;SDS011;5630;49.342;10.802;2023-04-08T03:46:14;22.27;;;18.87;;
11151;SDS011;5630;49.342;10.802;2023-04-08T03:48:40;23.17;;;19.23;;
11151;SDS011;5630;49.342;10.802;2023-04-08T03:51:05;22.37;;;18.13;;
11151;SDS011;5630;49.342;10.802;2023-04-08T03:53:31;22.13;;;18.30;;
11151;SDS011;5630;49.342;10.802;2023-04-08T03:55:56;21.03;;;18.63;;
11151;SDS011;5630;49.342;10.802;2023-04-08T03:58:22;23.57;;;19.53;;
11151;SDS011;5630;49.342;10.802;2023-04-08T04:00:47;22.40;;;18.73;;
11151;SDS011;5630;49.342;10.802;2023-04-08T04:03:13;22.73;;;18.73;;
11151;SDS011;5630;49.342;10.802;2023-04-08T04:05:39;22.20;;;18.33;;
11151;SDS011;5630;49.342;10.802;2023-04-08T04:08:05;22.83;;;18.10;;
11151;SDS011;5630;49.342;10.802;2023-04-08T04:10:31;21.77;;;19.00;;
11151;SDS011;5630;49.342;10.802;2023-04-08T04:12:56;19.73;;;17.60;;
11151;SDS011;5630;49.342;10.802;2023-04-08T04:15:22;20.77;;;18.57;;
11151;SDS011;5630;49.342;10.802;2023-04-08T04:17:47;21.17;;;18.57;;
11151;SDS011;5630;49.342;10.802;2023-04-08T04:20:17;20.87;;;18.57;;
11151;SDS011;5630;49.342;10.802;2023-04-08T04:22:43;22.23;;;17.83;;
11151;SDS011;5630;49.342;10.802;2023-04-08T04:25:08;24.73;;;19.20;;
11151;SDS011;5630;49.342;10.802;2023-04-08T04:27:34;20.50;;;18.20;;
11151;SDS011;5630;49.342;10.802;2023-04-08T04:30:04;21.23;;;18.00;;
11151;SDS011;5630;49.342;10.802;2023-04-08T04:32:31;19.63;;;16.27;;
11151;SDS011;5630;49.342;10.802;2023-04-08T04:34:56;22.20;;;17.27;;
11151;SDS011;5630;49.342;10.802;2023-04-08T04:37:22;21.67;;;17.50;;
11151;SDS011;5630;49.342;10.802;2023-04-08T04:39:47;18.50;;;16.50;;
11151;SDS011;5630;49.342;10.802;2023-04-08T04:42:13;22.67;;;17.17;;
11151;SDS011;5630;49.342;10.802;2023-04-08T04:44:38;19.53;;;17.43;;
11151;SDS011;5630;49.342;10.802;2023-04-08T04:47:04;19.40;;;15.97;;
11151;SDS011;5630;49.342;10.802;2023-04-08T04:49:30;18.50;;;16.57;;
11151;SDS011;5630;49.342;10.802;2023-04-08T04:51:55;21.40;;;18.00;;
11151;SDS011;5630;49.342;10.802;2023-04-08T04:54:21;18.83;;;16.17;;
11151;SDS011;5630;49.342;10.802;2023-04-08T04:56:46;22.37;;;17.40;;
11151;SDS011;5630;49.342;10.802;2023-04-08T04:59:12;18.27;;;16.17;;
11151;SDS011;5630;49.342;10.802;2023-04-08T05:01:37;19.17;;;16.27;;
11151;SDS011;5630;49.342;10.802;2023-04-08T05:04:05;18.97;;;15.93;;
11151;SDS011;5630;49.342;10.802;2023-04-08T05:06:31;22.00;;;17.73;;
11151;SDS011;5630;49.342;10.802;2023-04-08T05:08:57;22.57;;;17.20;;
11151;SDS011;5630;49.342;10.802;2023-04-08T05:11:22;19.00;;;16.27;;
11151;SDS011;5630;49.342;10.802;2023-04-08T05:13:48;21.33;;;16.13;;
11151;SDS011;5630;49.342;10.802;2023-04-08T05:16:14;19.10;;;15.77;;
11151;SDS011;5630;49.342;10.802;2023-04-08T05:18:40;22.80;;;16.53;;
11151;SDS011;5630;49.342;10.802;2023-04-08T05:21:05;19.20;;;16.50;;
11151;SDS011;5630;49.342;10.802;2023-04-08T05:23:31;19.00;;;16.50;;
11151;SDS011;5630;49.342;10.802;2023-04-08T05:25:58;18.37;;;15.97;;
11151;SDS011;5630;49.342;10.802;2023-04-08T05:28:23;21.60;;;16.40;;
11151;SDS011;5630;49.342;10.802;2023-04-08T05:30:49;17.73;;;15.57;;
11151;SDS011;5630;49.342;10.802;2023-04-08T05:33:16;19.63;;;15.70;;
11151;SDS011;5630;49.342;10.802;2023-04-08T05:35:41;19.00;;;16.37;;
11151;SDS011;5630;49.342;10.802;2023-04-08T05:38:07;19.70;;;16.00;;
11151;SDS011;5630;49.342;10.802;2023-04-08T05:40:32;19.83;;;16.03;;
11151;SDS011;5630;49.342;10.802;2023-04-08T05:42:58;18.60;;;16.37;;
11151;SDS011;5630;49.342;10.802;2023-04-08T05:45:24;20.40;;;16.73;;
11151;SDS011;5630;49.342;10.802;2023-04-08T05:47:49;19.17;;;16.93;;
11151;SDS011;5630;49.342;10.802;2023-04-08T05:50:15;20.67;;;17.90;;
11151;SDS011;5630;49.342;10.802;2023-04-08T05:52:41;21.83;;;17.30;;
11151;SDS011;5630;49.342;10.802;2023-04-08T05:55:08;18.10;;;16.17;;
11151;SDS011;5630;49.342;10.802;2023-04-08T05:57:34;18.40;;;15.60;;
11151;SDS011;5630;49.342;10.802;2023-04-08T06:00:00;16.93;;;15.13;;
11151;SDS011;5630;49.342;10.802;2023-04-08T06:02:26;16.90;;;15.10;;
11151;SDS011;5630;49.342;10.802;2023-04-08T06:04:51;18.03;;;15.07;;
11151;SDS011;5630;49.342;10.802;2023-04-08T06:07:17;20.03;;;15.03;;
11151;SDS011;5630;49.342;10.802;2023-04-08T06:09:42;19.83;;;15.83;;
11151;SDS011;5630;49.342;10.802;2023-04-08T06:12:08;12.80;;;10.33;;
11151;SDS011;5630;49.342;10.802;2023-04-08T06:14:33;12.00;;;10.70;;
11151;SDS011;5630;49.342;10.802;2023-04-08T06:16:59;17.37;;;14.00;;
11151;SDS011;5630;49.342;10.802;2023-04-08T06:19:25;12.73;;;10.70;;
11151;SDS011;5630;49.342;10.802;2023-04-08T06:21:51;15.27;;;10.67;;
11151;SDS011;5630;49.342;10.802;2023-04-08T06:24:22;15.37;;;12.27;;
11151;SDS011;5630;49.342;10.802;2023-04-08T06:26:48;12.90;;;11.27;;
11151;SDS011;5630;49.342;10.802;2023-04-08T06:29:14;19.77;;;12.87;;
11151;SDS011;5630;49.342;10.802;2023-04-08T06:31:39;15.53;;;13.07;;
11151;SDS011;5630;49.342;10.802;2023-04-08T06:34:05;14.27;;;12.10;;
11151;SDS011;5630;49.342;10.802;2023-04-08T06:36:31;14.03;;;12.40;;
11151;SDS011;5630;49.342;10.802;2023-04-08T06:38:56;14.90;;;12.57;;
11151;SDS011;5630;49.342;10.802;2023-04-08T06:41:22;16.47;;;12.83;;
11151;SDS011;5630;49.342;10.802;2023-04-08T06:43:47;13.17;;;11.77;;
11151;SDS011;5630;49.342;10.802;2023-04-08T06:46:13;14.73;;;12.30;;
11151;SDS011;5630;49.342;10.802;2023-04-08T06:48:38;15.37;;;12.27;;
11151;SDS011;5630;49.342;10.802;2023-04-08T06:51:04;15.30;;;12.33;;
11151;SDS011;5630;49.342;10.802;2023-04-08T06:53:31;17.57;;;12.93;;
11151;SDS011;5630;49.342;10.802;2023-04-08T06:55:57;17.73;;;13.23;;
11151;SDS011;5630;49.342;10.802;2023-04-08T06:58:24;14.83;;;12.37;;
11151;SDS011;5630;49.342;10.802;2023-04-08T07:00:49;15.70;;;12.67;;
11151;SDS011;5630;49.342;10.802;2023-04-08T07:03:15;15.87;;;11.80;;
11151;SDS011;5630;49.342;10.802;2023-04-08T07:05:41;12.97;;;11.43;;
11151;SDS011;5630;49.342;10.802;2023-04-08T07:08:07;15.93;;;12.40;;
11151;SDS011;5630;49.342;10.802;2023-04-08T07:10:35;13.70;;;11.10;;
11151;SDS011;5630;49.342;10.802;2023-04-08T07:13:01;12.27;;;10.97;;
11151;SDS011;5630;49.342;10.802;2023-04-08T07:15:27;13.83;;;10.77;;
11151;SDS011;5630;49.342;10.802;2023-04-08T07:17:52;13.37;;;10.97;;
11151;SDS011;5630;49.342;10.802;2023-04-08T07:20:20;13.80;;;11.43;;
11151;SDS011;5630;49.342;10.802;2023-04-08T07:22:47;17.37;;;12.03;;
11151;SDS011;5630;49.342;10.802;2023-04-08T07:25:12;13.83;;;11.83;;
11151;SDS011;5630;49.342;10.802;2023-04-08T07:27:38;15.67;;;13.07;;
11151;SDS011;5630;49.342;10.802;2023-04-08T07:30:03;15.40;;;12.17;;
11151;SDS011;5630;49.342;10.802;2023-04-08T07:32:30;19.53;;;13.53;;
11151;SDS011;5630;49.342;10.802;2023-04-08T07:34:57;14.53;;;11.93;;
11151;SDS011;5630;49.342;10.802;2023-04-08T07:37:24;14.37;;;12.33;;
11151;SDS011;5630;49.342;10.802;2023-04-08T07:39:49;12.73;;;10.20;;
11151;SDS011;5630;49.342;10.802;2023-04-08T07:42:15;11.30;;;10.10;;
11151;SDS011;5630;49.342;10.802;2023-04-08T07:44:41;15.47;;;10.00;;
11151;SDS011;5630;49.342;10.802;2023-04-08T07:47:06;12.73;;;9.73;;
11151;SDS011;5630;49.342;10.802;2023-04-08T07:49:33;12.60;;;10.40;;
11151;SDS011;5630;49.342;10.802;2023-04-08T07:51:58;14.83;;;10.23;;
11151;SDS011;5630;49.342;10.802;2023-04-08T07:54:24;13.57;;;10.43;;
11151;SDS011;5630;49.342;10.802;2023-04-08T07:56:50;11.17;;;9.60;;
11151;SDS011;5630;49.342;10.802;2023-04-08T07:59:16;12.30;;;10.40;;
11151;SDS011;5630;49.342;10.802;2023-04-08T08:01:41;12.33;;;10.00;;
11151;SDS011;5630;49.342;10.802;2023-04-08T08:04:07;10.97;;;9.03;;
11151;SDS011;5630;49.342;10.802;2023-04-08T08:06:32;9.37;;;8.23;;
11151;SDS011;5630;49.342;10.802;2023-04-08T08:08:58;10.53;;;8.47;;
11151;SDS011;5630;49.342;10.802;2023-04-08T08:11:24;9.80;;;7.93;;
11151;SDS011;5630;49.342;10.802;2023-04-08T08:13:51;11.57;;;8.40;;
11151;SDS011;5630;49.342;10.802;2023-04-08T08:16:17;10.60;;;9.10;;
11151;SDS011;5630;49.342;10.802;2023-04-08T08:18:43;13.10;;;9.50;;
11151;SDS011;5630;49.342;10.802;2023-04-08T08:21:08;12.70;;;9.77;;
11151;SDS011;5630;49.342;10.802;2023-04-08T08:23:34;14.70;;;9.87;;
11151;SDS011;5630;49.342;10.802;2023-04-08T08:26:02;9.57;;;8.23;;
11151;SDS011;5630;49.342;10.802;2023-04-08T08:28:30;13.33;;;8.53;;
11151;SDS011;5630;49.342;10.802;2023-04-08T08:30:56;9.43;;;8.00;;
11151;SDS011;5630;49.342;10.802;2023-04-08T08:33:21;9.30;;;8.10;;
11151;SDS011;5630;49.342;10.802;2023-04-08T08:35:48;9.27;;;6.77;;
11151;SDS011;5630;49.342;10.802;2023-04-08T08:38:13;8.70;;;6.40;;
11151;SDS011;5630;49.342;10.802;2023-04-08T08:40:39;8.30;;;6.97;;
11151;SDS011;5630;49.342;10.802;2023-04-08T08:43:05;8.30;;;7.07;;
11151;SDS011;5630;49.342;10.802;2023-04-08T08:45:31;7.87;;;6.30;;
11151;SDS011;5630;49.342;10.802;2023-04-08T08:47:57;7.90;;;6.43;;
11151;SDS011;5630;49.342;10.802;2023-04-08T08:50:23;6.67;;;6.03;;
11151;SDS011;5630;49.342;10.802;2023-04-08T08:52:49;6.43;;;5.83;;
11151;SDS011;5630;49.342;10.802;2023-04-08T08:55:19;6.87;;;6.17;;
11151;SDS011;5630;49.342;10.802;2023-04-08T08:57:45;7.60;;;6.80;;
11151;SDS011;5630;49.342;10.802;2023-04-08T09:00:14;7.60;;;6.70;;
11151;SDS011;5630;49.342;10.802;2023-04-08T09:02:40;7.53;;;6.13;;
11151;SDS011;5630;49.342;10.802;2023-04-08T09:05:06;6.80;;;5.83;;
11151;SDS011;5630;49.342;10.802;2023-04-08T09:07:37;6.80;;;6.13;;
11151;SDS011;5630;49.342;10.802;2023-04-08T09:10:06;7.73;;;6.30;;
11151;SDS011;5630;49.342;10.802;2023-04-08T09:12:32;7.10;;;6.23;;
11151;SDS011;5630;49.342;10.802;2023-04-08T09:15:07;8.70;;;6.77;;
11151;SDS011;5630;49.342;10.802;2023-04-08T09:17:34;8.20;;;6.80;;
11151;SDS011;5630;49.342;10.802;2023-04-08T09:20:04;8.20;;;7.40;;
11151;SDS011;5630;49.342;10.802;2023-04-08T09:22:33;7.43;;;6.57;;
11151;SDS011;5630;49.342;10.802;2023-04-08T09:25:27;8.10;;;7.30;;
11151;SDS011;5630;49.342;10.802;2023-04-08T09:27:54;7.50;;;6.67;;
11151;SDS011;5630;49.342;10.802;2023-04-08T09:30:21;7.83;;;7.00;;
11151;SDS011;5630;49.342;10.802;2023-04-08T09:32:51;9.10;;;6.93;;
11151;SDS011;5630;49.342;10.802;2023-04-08T09:35:21;8.00;;;7.07;;
11151;SDS011;5630;49.342;10.802;2023-04-08T09:37:47;7.80;;;6.97;;
11151;SDS011;5630;49.342;10.802;2023-04-08T09:40:14;8.47;;;7.57;;
11151;SDS011;5630;49.342;10.802;2023-04-08T09:42:41;9.27;;;7.30;;
11151;SDS011;5630;49.342;10.802;2023-04-08T09:45:10;8.40;;;7.43;;
11151;SDS011;5630;49.342;10.802;2023-04-08T09:47:47;8.37;;;7.50;;
11151;SDS011;5630;49.342;10.802;2023-04-08T09:50:30;9.57;;;7.27;;
11151;SDS011;5630;49.342;10.802;2023-04-08T09:53:00;8.33;;;7.43;;
11151;SDS011;5630;49.342;10.802;2023-04-08T09:55:33;8.47;;;7.53;;
11151;SDS011;5630;49.342;10.802;2023-04-08T09:58:02;9.67;;;8.27;;
11151;SDS011;5630;49.342;10.802;2023-04-08T10:00:41;8.90;;;8.00;;
11151;SDS011;5630;49.342;10.802;2023-04-08T10:06:01;9.43;;;8.50;;
11151;SDS011;5630;49.342;10.802;2023-04-08T10:08:27;10.73;;;9.00;;
11151;SDS011;5630;49.342;10.802;2023-04-08T10:10:54;10.30;;;9.00;;
11151;SDS011;5630;49.342;10.802;2023-04-08T10:13:20;10.13;;;9.07;;
11151;SDS011;5630;49.342;10.802;2023-04-08T10:15:46;13.90;;;9.87;;
11151;SDS011;5630;49.342;10.802;2023-04-08T10:23:07;9.80;;;8.80;;
11151;SDS011;5630;49.342;10.802;2023-04-08T10:25:35;10.30;;;8.80;;
11151;SDS011;5630;49.342;10.802;2023-04-08T10:30:48;9.40;;;8.47;;
11151;SDS011;5630;49.342;10.802;2023-04-08T10:33:15;9.90;;;8.40;;
11151;SDS011;5630;49.342;10.802;2023-04-08T10:36:27;8.70;;;7.53;;
11151;SDS011;5630;49.342;10.802;2023-04-08T10:38:35;9.47;;;8.33;;
11151;SDS011;5630;49.342;10.802;2023-04-08T10:41:01;9.73;;;8.73;;
11151;SDS011;5630;49.342;10.802;2023-04-08T10:43:30;8.67;;;7.67;;
11151;SDS011;5630;49.342;10.802;2023-04-08T10:45:57;9.53;;;8.63;;
11151;SDS011;5630;49.342;10.802;2023-04-08T10:48:23;10.10;;;8.63;;
11151;SDS011;5630;49.342;10.802;2023-04-08T10:53:31;10.60;;;9.13;;
11151;SDS011;5630;49.342;10.802;2023-04-08T10:56:02;10.67;;;8.77;;
11151;SDS011;5630;49.342;10.802;2023-04-08T10:58:46;9.60;;;8.40;;
11151;SDS011;5630;49.342;10.802;2023-04-08T11:01:13;8.83;;;7.87;;
11151;SDS011;5630;49.342;10.802;2023-04-08T11:03:38;10.03;;;8.80;;
11151;SDS011;5630;49.342;10.802;2023-04-08T11:06:06;9.77;;;8.77;;
11151;SDS011;5630;49.342;10.802;2023-04-08T11:08:32;9.67;;;8.67;;
11151;SDS011;5630;49.342;10.802;2023-04-08T11:11:02;9.53;;;8.53;;
11151;SDS011;5630;49.342;10.802;2023-04-08T11:13:32;9.07;;;7.87;;
11151;SDS011;5630;49.342;10.802;2023-04-08T11:16:00;8.33;;;7.43;;
11151;SDS011;5630;49.342;10.802;2023-04-08T11:18:26;8.47;;;7.67;;
11151;SDS011;5630;49.342;10.802;2023-04-08T11:20:52;8.67;;;7.77;;
11151;SDS011;5630;49.342;10.802;2023-04-08T11:23:18;10.80;;;8.07;;
11151;SDS011;5630;49.342;10.802;2023-04-08T11:25:44;9.10;;;7.97;;
11151;SDS011;5630;49.342;10.802;2023-04-08T11:28:12;8.70;;;7.70;;
11151;SDS011;5630;49.342;10.802;2023-04-08T11:30:38;8.20;;;7.40;;
11151;SDS011;5630;49.342;10.802;2023-04-08T11:33:05;10.10;;;7.70;;
11151;SDS011;5630;49.342;10.802;2023-04-08T11:35:31;8.43;;;7.60;;
11151;SDS011;5630;49.342;10.802;2023-04-08T11:37:57;8.97;;;7.67;;
11151;SDS011;5630;49.342;10.802;2023-04-08T11:40:23;8.93;;;8.03;;
11151;SDS011;5630;49.342;10.802;2023-04-08T11:42:50;9.00;;;8.10;;
11151;SDS011;5630;49.342;10.802;2023-04-08T11:45:17;8.90;;;8.00;;
11151;SDS011;5630;49.342;10.802;2023-04-08T11:47:45;10.00;;;8.20;;
11151;SDS011;5630;49.342;10.802;2023-04-08T11:50:12;8.40;;;7.60;;
11151;SDS011;5630;49.342;10.802;2023-04-08T11:52:47;8.70;;;7.83;;
11151;SDS011;5630;49.342;10.802;2023-04-08T11:55:26;10.00;;;9.00;;
11151;SDS011;5630;49.342;10.802;2023-04-08T11:57:54;9.30;;;8.10;;
11151;SDS011;5630;49.342;10.802;2023-04-08T12:00:21;8.63;;;7.73;;
11151;SDS011;5630;49.342;10.802;2023-04-08T12:02:47;9.77;;;8.57;;
11151;SDS011;5630;49.342;10.802;2023-04-08T12:05:13;10.20;;;8.17;;
11151;SDS011;5630;49.342;10.802;2023-04-08T12:07:40;10.07;;;9.07;;
11151;SDS011;5630;49.342;10.802;2023-04-08T12:10:06;9.53;;;8.53;;
11151;SDS011;5630;49.342;10.802;2023-04-08T12:12:32;10.37;;;9.23;;
11151;SDS011;5630;49.342;10.802;2023-04-08T12:14:58;9.70;;;8.70;;
11151;SDS011;5630;49.342;10.802;2023-04-08T12:17:24;8.63;;;7.73;;
11151;SDS011;5630;49.342;10.802;2023-04-08T12:19:49;8.67;;;7.63;;
11151;SDS011;5630;49.342;10.802;2023-04-08T12:22:15;7.10;;;5.00;;
11151;SDS011;5630;49.342;10.802;2023-04-08T12:24:41;6.20;;;4.57;;
11151;SDS011;5630;49.342;10.802;2023-04-08T12:27:06;5.90;;;5.30;;
11151;SDS011;5630;49.342;10.802;2023-04-08T12:29:32;8.23;;;7.23;;
11151;SDS011;5630;49.342;10.802;2023-04-08T12:31:58;8.93;;;8.03;;
11151;SDS011;5630;49.342;10.802;2023-04-08T12:34:24;8.27;;;7.43;;
11151;SDS011;5630;49.342;10.802;2023-04-08T12:36:49;7.73;;;6.93;;
11151;SDS011;5630;49.342;10.802;2023-04-08T12:39:15;8.60;;;7.73;;
11151;SDS011;5630;49.342;10.802;2023-04-08T12:41:41;9.30;;;7.77;;
11151;SDS011;5630;49.342;10.802;2023-04-08T12:44:07;8.53;;;7.73;;
11151;SDS011;5630;49.342;10.802;2023-04-08T12:46:32;8.80;;;7.83;;
11151;SDS011;5630;49.342;10.802;2023-04-08T12:48:58;8.40;;;7.60;;
11151;SDS011;5630;49.342;10.802;2023-04-08T12:51:24;9.30;;;7.97;;
11151;SDS011;5630;49.342;10.802;2023-04-08T12:53:50;8.77;;;7.87;;
11151;SDS011;5630;49.342;10.802;2023-04-08T12:56:16;9.37;;;8.10;;
11151;SDS011;5630;49.342;10.802;2023-04-08T12:58:41;9.27;;;8.37;;
11151;SDS011;5630;49.342;10.802;2023-04-08T13:01:07;9.90;;;8.90;;
11151;SDS011;5630;49.342;10.802;2023-04-08T13:03:33;10.20;;;9.20;;
11151;SDS011;5630;49.342;10.802;2023-04-08T13:05:59;10.30;;;8.60;;
11151;SDS011;5630;49.342;10.802;2023-04-08T13:08:25;9.60;;;8.60;;
11151;SDS011;5630;49.342;10.802;2023-04-08T13:10:51;10.80;;;7.80;;
11151;SDS011;5630;49.342;10.802;2023-04-08T13:13:16;9.43;;;8.53;;
11151;SDS011;5630;49.342;10.802;2023-04-08T13:15:42;8.90;;;8.00;;
11151;SDS011;5630;49.342;10.802;2023-04-08T13:18:08;14.37;;;11.10;;
11151;SDS011;5630;49.342;10.802;2023-04-08T13:20:33;10.30;;;8.93;;
11151;SDS011;5630;49.342;10.802;2023-04-08T13:22:59;8.83;;;7.70;;
11151;SDS011;5630;49.342;10.802;2023-04-08T13:25:25;21.30;;;15.73;;
11151;SDS011;5630;49.342;10.802;2023-04-08T13:27:51;10.90;;;9.37;;
11151;SDS011;5630;49.342;10.802;2023-04-08T13:30:16;8.77;;;7.87;;
11151;SDS011;5630;49.342;10.802;2023-04-08T13:32:42;14.87;;;11.43;;
11151;SDS011;5630;49.342;10.802;2023-04-08T13:35:08;15.80;;;12.97;;
11151;SDS011;5630;49.342;10.802;2023-04-08T13:37:33;10.83;;;9.73;;
11151;SDS011;5630;49.342;10.802;2023-04-08T13:39:59;8.67;;;7.77;;
11151;SDS011;5630;49.342;10.802;2023-04-08T13:42:25;9.57;;;8.60;;
11151;SDS011;5630;49.342;10.802;2023-04-08T13:44:51;10.97;;;9.83;;
11151;SDS011;5630;49.342;10.802;2023-04-08T13:47:16;9.63;;;8.63;;
11151;SDS011;5630;49.342;10.802;2023-04-08T13:49:42;10.00;;;9.00;;
11151;SDS011;5630;49.342;10.802;2023-04-08T13:52:08;9.83;;;8.60;;
11151;SDS011;5630;49.342;10.802;2023-04-08T13:54:34;8.63;;;7.73;;
11151;SDS011;5630;49.342;10.802;2023-04-08T13:57:00;7.90;;;7.10;;
11151;SDS011;5630;49.342;10.802;2023-04-08T13:59:25;7.43;;;6.73;;
11151;SDS011;5630;49.342;10.802;2023-04-08T14:01:51;8.07;;;7.27;;
11151;SDS011;5630;49.342;10.802;2023-04-08T14:04:21;7.80;;;7.10;;
11151;SDS011;5630;49.342;10.802;2023-04-08T14:06:47;8.80;;;7.40;;
11151;SDS011;5630;49.342;10.802;2023-04-08T14:09:15;8.90;;;8.00;;
11151;SDS011;5630;49.342;10.802;2023-04-08T14:11:43;8.80;;;7.90;;
11151;SDS011;5630;49.342;10.802;2023-04-08T14:14:09;9.80;;;7.40;;
11151;SDS011;5630;49.342;10.802;2023-04-08T14:16:35;8.60;;;7.63;;
11151;SDS011;5630;49.342;10.802;2023-04-08T14:19:00;8.43;;;7.50;;
11151;SDS011;5630;49.342;10.802;2023-04-08T14:21:27;10.13;;;8.87;;
11151;SDS011;5630;49.342;10.802;2023-04-08T14:23:52;9.70;;;8.70;;
11151;SDS011;5630;49.342;10.802;2023-04-08T14:26:18;8.63;;;7.73;;
11151;SDS011;5630;49.342;10.802;2023-04-08T14:28:45;9.00;;;7.13;;
11151;SDS011;5630;49.342;10.802;2023-04-08T14:31:11;7.70;;;6.93;;
11151;SDS011;5630;49.342;10.802;2023-04-08T14:33:37;7.60;;;6.80;;
11151;SDS011;5630;49.342;10.802;2023-04-08T14:36:03;6.60;;;6.00;;
11151;SDS011;5630;49.342;10.802;2023-04-08T14:38:30;9.00;;;7.20;;
11151;SDS011;5630;49.342;10.802;2023-04-08T14:40:55;8.33;;;7.50;;
11151;SDS011;5630;49.342;10.802;2023-04-08T14:43:21;8.00;;;7.20;;